sensor_id;sensor_type;location;lat;lon;timestamp;P1;durP1;ratioP1;P2;durP2;ratioP2
70806;SDS011;58882;52.170;5.386;2023-02-04T00:01:18;14.55;;;2.22;;
70806;SDS011;58882;52.170;5.386;2023-02-04T00:03:59;18.73;;;2.70;;
70806;SDS011;58882;52.170;5.386;2023-02-04T00:06:45;11.60;;;2.10;;
70806;SDS011;58882;52.170;5.386;2023-02-04T00:09:26;14.88;;;2.33;;
70806;SDS011;58882;52.170;5.386;2023-02-04T00:12:12;16.27;;;2.70;;
70806;SDS011;58882;52.170;5.386;2023-02-04T00:14:53;9.57;;;1.73;;
70806;SDS011;58882;52.170;5.386;2023-02-04T00:20:20;11.55;;;2.28;;
70806;SDS011;58882;52.170;5.386;2023-02-04T00:23:14;12.75;;;2.45;;
70806;SDS011;58882;52.170;5.386;2023-02-04T00:25:48;14.50;;;2.53;;
70806;SDS011;58882;52.170;5.386;2023-02-04T00:31:22;11.95;;;2.15;;
70806;SDS011;58882;52.170;5.386;2023-02-04T00:34:08;13.18;;;2.10;;
70806;SDS011;58882;52.170;5.386;2023-02-04T00:36:42;11.98;;;2.58;;
70806;SDS011;58882;52.170;5.386;2023-02-04T00:39:35;11.10;;;2.40;;
70806;SDS011;58882;52.170;5.386;2023-02-04T00:42:16;12.40;;;2.30;;
70806;SDS011;58882;52.170;5.386;2023-02-04T00:45:10;15.48;;;2.38;;
70806;SDS011;58882;52.170;5.386;2023-02-04T00:47:44;13.13;;;2.50;;
70806;SDS011;58882;52.170;5.386;2023-02-04T00:50:37;12.85;;;2.65;;
70806;SDS011;58882;52.170;5.386;2023-02-04T00:53:18;16.20;;;2.97;;
70806;SDS011;58882;52.170;5.386;2023-02-04T00:56:04;12.13;;;2.30;;
70806;SDS011;58882;52.170;5.386;2023-02-04T00:58:45;16.67;;;2.70;;
70806;SDS011;58882;52.170;5.386;2023-02-04T01:01:31;14.20;;;2.60;;
70806;SDS011;58882;52.170;5.386;2023-02-04T01:04:13;13.77;;;2.40;;
70806;SDS011;58882;52.170;5.386;2023-02-04T01:07:00;13.77;;;2.30;;
70806;SDS011;58882;52.170;5.386;2023-02-04T01:09:41;12.63;;;2.28;;
70806;SDS011;58882;52.170;5.386;2023-02-04T01:12:27;15.15;;;2.38;;
70806;SDS011;58882;52.170;5.386;2023-02-04T01:15:08;15.57;;;2.47;;
70806;SDS011;58882;52.170;5.386;2023-02-04T01:17:55;15.48;;;2.72;;
70806;SDS011;58882;52.170;5.386;2023-02-04T01:20:36;15.73;;;2.60;;
70806;SDS011;58882;52.170;5.386;2023-02-04T01:23:22;14.63;;;2.47;;
70806;SDS011;58882;52.170;5.386;2023-02-04T01:26:03;12.80;;;2.20;;
70806;SDS011;58882;52.170;5.386;2023-02-04T01:28:56;16.08;;;2.35;;
70806;SDS011;58882;52.170;5.386;2023-02-04T01:31:37;14.65;;;2.60;;
70806;SDS011;58882;52.170;5.386;2023-02-04T01:34:23;17.40;;;2.83;;
70806;SDS011;58882;52.170;5.386;2023-02-04T01:39:50;17.67;;;2.55;;
70806;SDS011;58882;52.170;5.386;2023-02-04T01:42:24;17.95;;;2.70;;
70806;SDS011;58882;52.170;5.386;2023-02-04T01:45:17;17.45;;;2.42;;
70806;SDS011;58882;52.170;5.386;2023-02-04T01:50:48;27.02;;;3.13;;
70806;SDS011;58882;52.170;5.386;2023-02-04T01:53:30;14.40;;;2.53;;
70806;SDS011;58882;52.170;5.386;2023-02-04T01:56:18;17.08;;;4.13;;
70806;SDS011;58882;52.170;5.386;2023-02-04T01:59:01;20.63;;;2.78;;
70806;SDS011;58882;52.170;5.386;2023-02-04T02:01:54;19.75;;;2.90;;
70806;SDS011;58882;52.170;5.386;2023-02-04T02:04:28;16.13;;;2.58;;
70806;SDS011;58882;52.170;5.386;2023-02-04T02:07:24;18.90;;;2.50;;
70806;SDS011;58882;52.170;5.386;2023-02-04T02:09:58;17.95;;;3.00;;
70806;SDS011;58882;52.170;5.386;2023-02-04T02:12:52;13.85;;;2.47;;
70806;SDS011;58882;52.170;5.386;2023-02-04T02:15:26;19.80;;;2.90;;
70806;SDS011;58882;52.170;5.386;2023-02-04T02:18:19;14.40;;;2.97;;
70806;SDS011;58882;52.170;5.386;2023-02-04T02:20:54;17.85;;;3.20;;
70806;SDS011;58882;52.170;5.386;2023-02-04T02:23:53;15.02;;;2.55;;
70806;SDS011;58882;52.170;5.386;2023-02-04T02:26:35;22.05;;;3.10;;
70806;SDS011;58882;52.170;5.386;2023-02-04T02:29:22;20.08;;;2.80;;
70806;SDS011;58882;52.170;5.386;2023-02-04T02:34:49;17.55;;;2.88;;
70806;SDS011;58882;52.170;5.386;2023-02-04T02:37:23;16.75;;;2.72;;
70806;SDS011;58882;52.170;5.386;2023-02-04T02:40:17;17.95;;;2.72;;
70806;SDS011;58882;52.170;5.386;2023-02-04T02:43:05;15.63;;;2.70;;
70806;SDS011;58882;52.170;5.386;2023-02-04T02:46:05;23.17;;;2.85;;
70806;SDS011;58882;52.170;5.386;2023-02-04T02:48:39;18.45;;;2.83;;
70806;SDS011;58882;52.170;5.386;2023-02-04T02:51:32;17.40;;;2.65;;
70806;SDS011;58882;52.170;5.386;2023-02-04T02:57:11;20.95;;;3.17;;
70806;SDS011;58882;52.170;5.386;2023-02-04T02:59:54;23.60;;;2.95;;
70806;SDS011;58882;52.170;5.386;2023-02-04T03:02:43;16.42;;;2.35;;
70806;SDS011;58882;52.170;5.386;2023-02-04T03:05:24;18.88;;;2.80;;
70806;SDS011;58882;52.170;5.386;2023-02-04T03:08:14;19.58;;;2.85;;
70806;SDS011;58882;52.170;5.386;2023-02-04T03:10:55;14.68;;;2.95;;
70806;SDS011;58882;52.170;5.386;2023-02-04T03:13:48;15.32;;;2.90;;
70806;SDS011;58882;52.170;5.386;2023-02-04T03:16:30;18.30;;;3.25;;
70806;SDS011;58882;52.170;5.386;2023-02-04T03:19:20;23.80;;;2.95;;
70806;SDS011;58882;52.170;5.386;2023-02-04T03:22:05;17.95;;;3.00;;
70806;SDS011;58882;52.170;5.386;2023-02-04T03:27:33;14.98;;;2.65;;
70806;SDS011;58882;52.170;5.386;2023-02-04T03:30:23;20.33;;;2.72;;
70806;SDS011;58882;52.170;5.386;2023-02-04T03:33:04;16.20;;;2.38;;
70806;SDS011;58882;52.170;5.386;2023-02-04T03:35:51;19.83;;;2.70;;
70806;SDS011;58882;52.170;5.386;2023-02-04T03:38:32;16.10;;;2.92;;
70806;SDS011;58882;52.170;5.386;2023-02-04T03:44:12;18.75;;;2.97;;
70806;SDS011;58882;52.170;5.386;2023-02-04T03:46:54;16.92;;;2.95;;
70806;SDS011;58882;52.170;5.386;2023-02-04T03:49:41;21.27;;;3.38;;
70806;SDS011;58882;52.170;5.386;2023-02-04T03:52:22;17.65;;;3.10;;
70806;SDS011;58882;52.170;5.386;2023-02-04T03:55:08;15.60;;;2.90;;
70806;SDS011;58882;52.170;5.386;2023-02-04T03:57:49;14.88;;;2.80;;
70806;SDS011;58882;52.170;5.386;2023-02-04T04:00:35;16.67;;;2.70;;
70806;SDS011;58882;52.170;5.386;2023-02-04T04:03:16;15.02;;;2.80;;
70806;SDS011;58882;52.170;5.386;2023-02-04T04:06:02;26.73;;;2.90;;
70806;SDS011;58882;52.170;5.386;2023-02-04T04:08:45;18.38;;;3.08;;
70806;SDS011;58882;52.170;5.386;2023-02-04T04:11:31;17.05;;;3.05;;
70806;SDS011;58882;52.170;5.386;2023-02-04T04:14:12;20.55;;;2.70;;
70806;SDS011;58882;52.170;5.386;2023-02-04T04:17:05;15.88;;;2.65;;
70806;SDS011;58882;52.170;5.386;2023-02-04T04:19:39;16.92;;;2.47;;
70806;SDS011;58882;52.170;5.386;2023-02-04T04:22:32;23.27;;;2.80;;
70806;SDS011;58882;52.170;5.386;2023-02-04T04:25:06;21.27;;;2.67;;
70806;SDS011;58882;52.170;5.386;2023-02-04T04:28:00;20.52;;;2.67;;
70806;SDS011;58882;52.170;5.386;2023-02-04T04:30:34;14.82;;;2.40;;
70806;SDS011;58882;52.170;5.386;2023-02-04T04:33:27;16.25;;;3.25;;
70806;SDS011;58882;52.170;5.386;2023-02-04T04:36:08;20.83;;;2.53;;
70806;SDS011;58882;52.170;5.386;2023-02-04T04:39:02;15.55;;;2.90;;
70806;SDS011;58882;52.170;5.386;2023-02-04T04:41:42;18.05;;;2.75;;
70806;SDS011;58882;52.170;5.386;2023-02-04T04:44:28;14.15;;;2.55;;
70806;SDS011;58882;52.170;5.386;2023-02-04T04:47:02;20.08;;;2.65;;
70806;SDS011;58882;52.170;5.386;2023-02-04T04:49:55;18.50;;;2.60;;
70806;SDS011;58882;52.170;5.386;2023-02-04T04:52:29;15.45;;;2.45;;
70806;SDS011;58882;52.170;5.386;2023-02-04T04:55:22;16.48;;;2.72;;
70806;SDS011;58882;52.170;5.386;2023-02-04T04:58:03;17.30;;;2.92;;
70806;SDS011;58882;52.170;5.386;2023-02-04T05:00:58;15.23;;;2.65;;
70806;SDS011;58882;52.170;5.386;2023-02-04T05:03:39;14.40;;;2.63;;
70806;SDS011;58882;52.170;5.386;2023-02-04T05:06:32;18.42;;;2.70;;
70806;SDS011;58882;52.170;5.386;2023-02-04T05:09:06;17.23;;;3.03;;
70806;SDS011;58882;52.170;5.386;2023-02-04T05:12:00;16.10;;;2.50;;
70806;SDS011;58882;52.170;5.386;2023-02-04T05:14:41;16.45;;;2.90;;
70806;SDS011;58882;52.170;5.386;2023-02-04T05:17:27;18.23;;;3.35;;
70806;SDS011;58882;52.170;5.386;2023-02-04T05:20:08;17.17;;;2.70;;
70806;SDS011;58882;52.170;5.386;2023-02-04T05:25:38;19.77;;;2.80;;
70806;SDS011;58882;52.170;5.386;2023-02-04T05:28:24;19.30;;;3.05;;
70806;SDS011;58882;52.170;5.386;2023-02-04T05:31:05;16.52;;;2.72;;
70806;SDS011;58882;52.170;5.386;2023-02-04T05:33:51;14.07;;;2.65;;
70806;SDS011;58882;52.170;5.386;2023-02-04T05:36:39;14.13;;;2.60;;
70806;SDS011;58882;52.170;5.386;2023-02-04T05:39:33;18.63;;;2.53;;
70806;SDS011;58882;52.170;5.386;2023-02-04T05:42:15;15.00;;;2.60;;
70806;SDS011;58882;52.170;5.386;2023-02-04T05:45:02;19.90;;;2.92;;
70806;SDS011;58882;52.170;5.386;2023-02-04T05:47:43;17.60;;;2.90;;
70806;SDS011;58882;52.170;5.386;2023-02-04T05:50:29;16.80;;;2.50;;
70806;SDS011;58882;52.170;5.386;2023-02-04T05:53:10;14.10;;;2.60;;
70806;SDS011;58882;52.170;5.386;2023-02-04T05:55:56;17.58;;;2.92;;
70806;SDS011;58882;52.170;5.386;2023-02-04T05:58:37;17.33;;;2.55;;
70806;SDS011;58882;52.170;5.386;2023-02-04T06:01:23;14.57;;;2.80;;
70806;SDS011;58882;52.170;5.386;2023-02-04T06:04:04;22.20;;;3.15;;
70806;SDS011;58882;52.170;5.386;2023-02-04T06:06:50;19.52;;;3.75;;
70806;SDS011;58882;52.170;5.386;2023-02-04T06:09:31;13.68;;;2.53;;
70806;SDS011;58882;52.170;5.386;2023-02-04T06:14:59;21.98;;;2.90;;
70806;SDS011;58882;52.170;5.386;2023-02-04T06:17:45;18.10;;;2.60;;
70806;SDS011;58882;52.170;5.386;2023-02-04T06:20:26;19.40;;;3.35;;
70806;SDS011;58882;52.170;5.386;2023-02-04T06:23:19;16.17;;;2.75;;
70806;SDS011;58882;52.170;5.386;2023-02-04T06:26:03;21.55;;;3.22;;
70806;SDS011;58882;52.170;5.386;2023-02-04T06:28:49;16.90;;;2.60;;
70806;SDS011;58882;52.170;5.386;2023-02-04T06:31:23;22.30;;;3.10;;
70806;SDS011;58882;52.170;5.386;2023-02-04T06:34:16;15.48;;;2.90;;
70806;SDS011;58882;52.170;5.386;2023-02-04T06:36:50;20.00;;;3.28;;
70806;SDS011;58882;52.170;5.386;2023-02-04T06:39:43;15.80;;;2.90;;
70806;SDS011;58882;52.170;5.386;2023-02-04T06:42:17;17.00;;;3.05;;
70806;SDS011;58882;52.170;5.386;2023-02-04T06:45:31;22.17;;;2.95;;
70806;SDS011;58882;52.170;5.386;2023-02-04T06:48:05;16.08;;;3.00;;
70806;SDS011;58882;52.170;5.386;2023-02-04T06:50:58;18.17;;;2.90;;
70806;SDS011;58882;52.170;5.386;2023-02-04T06:53:39;21.30;;;3.65;;
70806;SDS011;58882;52.170;5.386;2023-02-04T06:56:25;17.13;;;2.75;;
70806;SDS011;58882;52.170;5.386;2023-02-04T06:59:08;22.60;;;2.90;;
70806;SDS011;58882;52.170;5.386;2023-02-04T07:02:03;14.43;;;2.60;;
70806;SDS011;58882;52.170;5.386;2023-02-04T07:04:45;16.05;;;3.00;;
70806;SDS011;58882;52.170;5.386;2023-02-04T07:07:31;19.90;;;2.92;;
70806;SDS011;58882;52.170;5.386;2023-02-04T07:10:12;26.65;;;3.00;;
70806;SDS011;58882;52.170;5.386;2023-02-04T07:13:01;18.40;;;2.80;;
70806;SDS011;58882;52.170;5.386;2023-02-04T07:15:42;17.98;;;2.90;;
70806;SDS011;58882;52.170;5.386;2023-02-04T07:18:29;24.75;;;3.10;;
70806;SDS011;58882;52.170;5.386;2023-02-04T07:21:10;18.00;;;3.28;;
70806;SDS011;58882;52.170;5.386;2023-02-04T07:24:04;16.50;;;2.72;;
70806;SDS011;58882;52.170;5.386;2023-02-04T07:26:44;18.17;;;3.13;;
70806;SDS011;58882;52.170;5.386;2023-02-04T07:29:30;16.67;;;2.85;;
70806;SDS011;58882;52.170;5.386;2023-02-04T07:32:11;16.98;;;2.83;;
70806;SDS011;58882;52.170;5.386;2023-02-04T07:34:58;17.15;;;2.63;;
70806;SDS011;58882;52.170;5.386;2023-02-04T07:37:39;18.55;;;3.42;;
70806;SDS011;58882;52.170;5.386;2023-02-04T07:40:25;18.80;;;2.95;;
70806;SDS011;58882;52.170;5.386;2023-02-04T07:43:06;17.13;;;3.58;;
70806;SDS011;58882;52.170;5.386;2023-02-04T07:45:52;15.63;;;3.10;;
70806;SDS011;58882;52.170;5.386;2023-02-04T07:48:33;14.18;;;2.88;;
70806;SDS011;58882;52.170;5.386;2023-02-04T07:51:20;15.68;;;2.70;;
70806;SDS011;58882;52.170;5.386;2023-02-04T07:56:46;16.67;;;2.80;;
70806;SDS011;58882;52.170;5.386;2023-02-04T08:02:21;14.13;;;3.13;;
70806;SDS011;58882;52.170;5.386;2023-02-04T08:05:02;13.75;;;2.88;;
70806;SDS011;58882;52.170;5.386;2023-02-04T08:07:41;13.20;;;3.20;;
70806;SDS011;58882;52.170;5.386;2023-02-04T08:10:22;12.52;;;2.85;;
70806;SDS011;58882;52.170;5.386;2023-02-04T08:13:15;13.95;;;2.90;;
70806;SDS011;58882;52.170;5.386;2023-02-04T08:15:49;15.18;;;2.97;;
70806;SDS011;58882;52.170;5.386;2023-02-04T08:21:23;14.57;;;3.30;;
70806;SDS011;58882;52.170;5.386;2023-02-04T08:24:10;12.80;;;3.22;;
70806;SDS011;58882;52.170;5.386;2023-02-04T08:26:51;16.35;;;3.10;;
70806;SDS011;58882;52.170;5.386;2023-02-04T08:29:44;18.10;;;3.35;;
70806;SDS011;58882;52.170;5.386;2023-02-04T08:32:18;14.07;;;3.22;;
70806;SDS011;58882;52.170;5.386;2023-02-04T08:35:12;15.38;;;3.40;;
70806;SDS011;58882;52.170;5.386;2023-02-04T08:37:46;16.05;;;3.55;;
70806;SDS011;58882;52.170;5.386;2023-02-04T08:40:39;13.50;;;3.38;;
70806;SDS011;58882;52.170;5.386;2023-02-04T08:43:13;18.65;;;3.85;;
70806;SDS011;58882;52.170;5.386;2023-02-04T08:46:06;19.95;;;3.75;;
70806;SDS011;58882;52.170;5.386;2023-02-04T08:48:47;14.05;;;3.42;;
70806;SDS011;58882;52.170;5.386;2023-02-04T08:51:33;15.27;;;3.60;;
70806;SDS011;58882;52.170;5.386;2023-02-04T08:54:14;19.70;;;3.67;;
70806;SDS011;58882;52.170;5.386;2023-02-04T08:57:01;15.18;;;3.28;;
70806;SDS011;58882;52.170;5.386;2023-02-04T08:59:42;20.83;;;3.83;;
70806;SDS011;58882;52.170;5.386;2023-02-04T09:02:35;17.88;;;3.80;;
70806;SDS011;58882;52.170;5.386;2023-02-04T09:05:16;15.70;;;2.97;;
70806;SDS011;58882;52.170;5.386;2023-02-04T09:08:03;16.55;;;3.40;;
70806;SDS011;58882;52.170;5.386;2023-02-04T09:10:36;23.50;;;3.92;;
70806;SDS011;58882;52.170;5.386;2023-02-04T09:16:10;15.68;;;3.60;;
70806;SDS011;58882;52.170;5.386;2023-02-04T09:19:03;20.27;;;3.72;;
70806;SDS011;58882;52.170;5.386;2023-02-04T09:21:37;21.13;;;3.88;;
70806;SDS011;58882;52.170;5.386;2023-02-04T09:27:11;15.82;;;3.40;;
70806;SDS011;58882;52.170;5.386;2023-02-04T09:30:05;12.32;;;3.50;;
70806;SDS011;58882;52.170;5.386;2023-02-04T09:32:39;15.23;;;3.20;;
70806;SDS011;58882;52.170;5.386;2023-02-04T09:38:13;18.23;;;3.65;;
70806;SDS011;58882;52.170;5.386;2023-02-04T09:41:06;18.58;;;3.25;;
70806;SDS011;58882;52.170;5.386;2023-02-04T09:43:49;17.92;;;3.42;;
70806;SDS011;58882;52.170;5.386;2023-02-04T09:49:25;19.33;;;3.47;;
70806;SDS011;58882;52.170;5.386;2023-02-04T09:52:14;20.70;;;3.42;;
70806;SDS011;58882;52.170;5.386;2023-02-04T09:54:56;12.98;;;2.40;;
70806;SDS011;58882;52.170;5.386;2023-02-04T09:57:42;18.13;;;2.90;;
70806;SDS011;58882;52.170;5.386;2023-02-04T10:03:14;16.90;;;3.15;;
70806;SDS011;58882;52.170;5.386;2023-02-04T10:05:49;15.40;;;3.17;;
70806;SDS011;58882;52.170;5.386;2023-02-04T10:08:44;20.25;;;3.17;;
70806;SDS011;58882;52.170;5.386;2023-02-04T10:11:26;23.63;;;3.70;;
70806;SDS011;58882;52.170;5.386;2023-02-04T10:14:20;18.35;;;3.75;;
70806;SDS011;58882;52.170;5.386;2023-02-04T10:17:02;18.98;;;3.08;;
70806;SDS011;58882;52.170;5.386;2023-02-04T10:19:48;12.13;;;2.80;;
70806;SDS011;58882;52.170;5.386;2023-02-04T10:22:29;14.95;;;3.03;;
70806;SDS011;58882;52.170;5.386;2023-02-04T10:25:17;17.33;;;3.15;;
70806;SDS011;58882;52.170;5.386;2023-02-04T10:27:59;16.65;;;3.00;;
70806;SDS011;58882;52.170;5.386;2023-02-04T10:30:45;18.35;;;3.40;;
70806;SDS011;58882;52.170;5.386;2023-02-04T10:33:26;20.55;;;3.78;;
70806;SDS011;58882;52.170;5.386;2023-02-04T10:36:13;13.57;;;2.50;;
70806;SDS011;58882;52.170;5.386;2023-02-04T10:38:58;12.95;;;2.95;;
70806;SDS011;58882;52.170;5.386;2023-02-04T10:44:36;14.48;;;2.65;;
70806;SDS011;58882;52.170;5.386;2023-02-04T10:47:30;16.58;;;2.97;;
70806;SDS011;58882;52.170;5.386;2023-02-04T10:50:16;12.27;;;2.72;;
70806;SDS011;58882;52.170;5.386;2023-02-04T10:53:04;16.00;;;2.75;;
70806;SDS011;58882;52.170;5.386;2023-02-04T10:56:03;16.77;;;2.95;;
70806;SDS011;58882;52.170;5.386;2023-02-04T10:59:01;15.20;;;2.70;;
70806;SDS011;58882;52.170;5.386;2023-02-04T11:01:42;15.15;;;2.78;;
70806;SDS011;58882;52.170;5.386;2023-02-04T11:04:28;17.42;;;2.70;;
70806;SDS011;58882;52.170;5.386;2023-02-04T11:07:10;12.93;;;2.55;;
70806;SDS011;58882;52.170;5.386;2023-02-04T11:09:58;13.75;;;2.83;;
70806;SDS011;58882;52.170;5.386;2023-02-04T11:12:40;16.10;;;2.78;;
70806;SDS011;58882;52.170;5.386;2023-02-04T11:15:36;13.10;;;2.58;;
70806;SDS011;58882;52.170;5.386;2023-02-04T11:21:13;15.50;;;2.65;;
70806;SDS011;58882;52.170;5.386;2023-02-04T11:27:07;16.30;;;2.97;;
70806;SDS011;58882;52.170;5.386;2023-02-04T11:30:20;15.45;;;2.83;;
70806;SDS011;58882;52.170;5.386;2023-02-04T11:33:21;13.45;;;2.70;;
70806;SDS011;58882;52.170;5.386;2023-02-04T11:35:59;17.15;;;3.10;;
70806;SDS011;58882;52.170;5.386;2023-02-04T11:39:05;15.80;;;2.90;;
70806;SDS011;58882;52.170;5.386;2023-02-04T11:41:52;16.02;;;2.90;;
70806;SDS011;58882;52.170;5.386;2023-02-04T11:44:38;13.40;;;2.70;;
70806;SDS011;58882;52.170;5.386;2023-02-04T11:47:36;15.25;;;2.75;;
70806;SDS011;58882;52.170;5.386;2023-02-04T11:50:12;16.02;;;2.55;;
70806;SDS011;58882;52.170;5.386;2023-02-04T11:53:18;14.93;;;2.45;;
70806;SDS011;58882;52.170;5.386;2023-02-04T11:55:58;15.93;;;2.60;;
70806;SDS011;58882;52.170;5.386;2023-02-04T11:58:46;16.67;;;2.80;;
70806;SDS011;58882;52.170;5.386;2023-02-04T12:01:30;13.35;;;2.30;;
70806;SDS011;58882;52.170;5.386;2023-02-04T12:04:27;16.65;;;2.92;;
70806;SDS011;58882;52.170;5.386;2023-02-04T12:07:10;12.88;;;2.25;;
70806;SDS011;58882;52.170;5.386;2023-02-04T12:09:58;19.10;;;2.88;;
70806;SDS011;58882;52.170;5.386;2023-02-04T12:13:15;11.95;;;2.40;;
70806;SDS011;58882;52.170;5.386;2023-02-04T12:16:04;15.32;;;2.58;;
70806;SDS011;58882;52.170;5.386;2023-02-04T12:18:46;12.70;;;2.35;;
70806;SDS011;58882;52.170;5.386;2023-02-04T12:21:34;14.38;;;2.42;;
70806;SDS011;58882;52.170;5.386;2023-02-04T12:24:14;12.45;;;2.13;;
70806;SDS011;58882;52.170;5.386;2023-02-04T12:27:01;9.88;;;1.95;;
70806;SDS011;58882;52.170;5.386;2023-02-04T12:29:41;11.82;;;2.35;;
70806;SDS011;58882;52.170;5.386;2023-02-04T12:32:28;14.85;;;2.28;;
70806;SDS011;58882;52.170;5.386;2023-02-04T12:35:08;11.40;;;1.80;;
70806;SDS011;58882;52.170;5.386;2023-02-04T12:38:02;13.73;;;2.60;;
70806;SDS011;58882;52.170;5.386;2023-02-04T12:40:43;9.25;;;1.73;;
70806;SDS011;58882;52.170;5.386;2023-02-04T12:43:30;14.23;;;2.40;;
70806;SDS011;58882;52.170;5.386;2023-02-04T12:46:24;12.35;;;2.20;;
70806;SDS011;58882;52.170;5.386;2023-02-04T12:49:04;14.55;;;2.72;;
70806;SDS011;58882;52.170;5.386;2023-02-04T12:51:51;13.75;;;2.30;;
70806;SDS011;58882;52.170;5.386;2023-02-04T12:54:31;13.63;;;2.45;;
70806;SDS011;58882;52.170;5.386;2023-02-04T12:57:18;13.60;;;2.30;;
70806;SDS011;58882;52.170;5.386;2023-02-04T12:59:58;13.25;;;2.47;;
70806;SDS011;58882;52.170;5.386;2023-02-04T13:02:53;13.55;;;2.47;;
70806;SDS011;58882;52.170;5.386;2023-02-04T13:05:37;13.73;;;2.25;;
70806;SDS011;58882;52.170;5.386;2023-02-04T13:08:31;10.38;;;2.00;;
70806;SDS011;58882;52.170;5.386;2023-02-04T13:11:04;15.25;;;2.85;;
70806;SDS011;58882;52.170;5.386;2023-02-04T13:13:58;14.65;;;2.30;;
70806;SDS011;58882;52.170;5.386;2023-02-04T13:16:38;17.48;;;2.20;;
70806;SDS011;58882;52.170;5.386;2023-02-04T13:19:25;12.95;;;2.78;;
70806;SDS011;58882;52.170;5.386;2023-02-04T13:22:05;14.70;;;3.10;;
70806;SDS011;58882;52.170;5.386;2023-02-04T13:24:52;18.05;;;2.42;;
70806;SDS011;58882;52.170;5.386;2023-02-04T13:27:32;13.75;;;2.30;;
70806;SDS011;58882;52.170;5.386;2023-02-04T13:30:19;12.85;;;2.47;;
70806;SDS011;58882;52.170;5.386;2023-02-04T13:32:59;16.27;;;2.50;;
70806;SDS011;58882;52.170;5.386;2023-02-04T13:35:46;17.83;;;2.60;;
70806;SDS011;58882;52.170;5.386;2023-02-04T13:38:26;15.07;;;2.60;;
70806;SDS011;58882;52.170;5.386;2023-02-04T13:41:13;13.98;;;2.70;;
70806;SDS011;58882;52.170;5.386;2023-02-04T13:43:53;20.17;;;2.92;;
70806;SDS011;58882;52.170;5.386;2023-02-04T13:46:48;10.93;;;2.42;;
70806;SDS011;58882;52.170;5.386;2023-02-04T13:49:28;15.18;;;2.80;;
70806;SDS011;58882;52.170;5.386;2023-02-04T13:52:22;16.70;;;2.50;;
70806;SDS011;58882;52.170;5.386;2023-02-04T13:55:16;13.77;;;2.80;;
70806;SDS011;58882;52.170;5.386;2023-02-04T13:57:56;14.10;;;2.47;;
70806;SDS011;58882;52.170;5.386;2023-02-04T14:00:43;14.77;;;2.33;;
70806;SDS011;58882;52.170;5.386;2023-02-04T14:03:30;14.65;;;2.58;;
70806;SDS011;58882;52.170;5.386;2023-02-04T14:06:10;14.15;;;2.80;;
70806;SDS011;58882;52.170;5.386;2023-02-04T14:08:57;8.93;;;1.90;;
70806;SDS011;58882;52.170;5.386;2023-02-04T14:11:31;18.60;;;2.97;;
70806;SDS011;58882;52.170;5.386;2023-02-04T14:14:25;16.90;;;2.45;;
70806;SDS011;58882;52.170;5.386;2023-02-04T14:16:58;15.65;;;2.85;;
70806;SDS011;58882;52.170;5.386;2023-02-04T14:19:52;12.13;;;2.50;;
70806;SDS011;58882;52.170;5.386;2023-02-04T14:22:32;13.73;;;2.45;;
70806;SDS011;58882;52.170;5.386;2023-02-04T14:25:19;16.08;;;2.40;;
70806;SDS011;58882;52.170;5.386;2023-02-04T14:27:59;15.70;;;2.65;;
70806;SDS011;58882;52.170;5.386;2023-02-04T14:30:46;14.88;;;2.75;;
70806;SDS011;58882;52.170;5.386;2023-02-04T14:33:26;13.98;;;2.25;;
70806;SDS011;58882;52.170;5.386;2023-02-04T14:36:13;15.75;;;2.50;;
70806;SDS011;58882;52.170;5.386;2023-02-04T14:38:53;14.18;;;2.58;;
70806;SDS011;58882;52.170;5.386;2023-02-04T14:41:40;12.90;;;2.38;;
70806;SDS011;58882;52.170;5.386;2023-02-04T14:44:20;13.60;;;2.50;;
70806;SDS011;58882;52.170;5.386;2023-02-04T14:47:07;13.77;;;2.60;;
70806;SDS011;58882;52.170;5.386;2023-02-04T14:52:41;16.77;;;2.92;;
70806;SDS011;58882;52.170;5.386;2023-02-04T14:55:14;14.52;;;2.72;;
70806;SDS011;58882;52.170;5.386;2023-02-04T14:58:08;16.50;;;2.83;;
70806;SDS011;58882;52.170;5.386;2023-02-04T15:00:41;19.08;;;2.70;;
70806;SDS011;58882;52.170;5.386;2023-02-04T15:03:35;13.35;;;2.58;;
70806;SDS011;58882;52.170;5.386;2023-02-04T15:09:02;16.92;;;2.75;;
70806;SDS011;58882;52.170;5.386;2023-02-04T15:14:29;15.25;;;2.88;;
70806;SDS011;58882;52.170;5.386;2023-02-04T15:17:02;12.85;;;2.53;;
70806;SDS011;58882;52.170;5.386;2023-02-04T15:19:56;15.55;;;2.72;;
70806;SDS011;58882;52.170;5.386;2023-02-04T15:22:29;14.32;;;2.65;;
70806;SDS011;58882;52.170;5.386;2023-02-04T15:28:03;18.58;;;3.13;;
70806;SDS011;58882;52.170;5.386;2023-02-04T15:30:51;18.60;;;3.05;;
70806;SDS011;58882;52.170;5.386;2023-02-04T15:36:18;16.27;;;2.70;;
70806;SDS011;58882;52.170;5.386;2023-02-04T15:41:52;13.13;;;2.83;;
70806;SDS011;58882;52.170;5.386;2023-02-04T15:47:19;16.83;;;2.67;;
70806;SDS011;58882;52.170;5.386;2023-02-04T15:49:59;13.00;;;2.38;;
70806;SDS011;58882;52.170;5.386;2023-02-04T15:52:54;13.05;;;2.30;;
70806;SDS011;58882;52.170;5.386;2023-02-04T15:55:34;13.70;;;2.90;;
70806;SDS011;58882;52.170;5.386;2023-02-04T15:58:21;15.18;;;2.92;;
70806;SDS011;58882;52.170;5.386;2023-02-04T16:01:01;16.27;;;3.03;;
70806;SDS011;58882;52.170;5.386;2023-02-04T16:03:55;16.02;;;2.95;;
70806;SDS011;58882;52.170;5.386;2023-02-04T16:06:36;14.30;;;3.25;;
70806;SDS011;58882;52.170;5.386;2023-02-04T16:09:37;14.48;;;2.60;;
70806;SDS011;58882;52.170;5.386;2023-02-04T16:12:17;14.23;;;3.08;;
70806;SDS011;58882;52.170;5.386;2023-02-04T16:15:04;11.50;;;2.70;;
70806;SDS011;58882;52.170;5.386;2023-02-04T16:17:45;17.25;;;3.25;;
70806;SDS011;58882;52.170;5.386;2023-02-04T16:20:34;13.70;;;2.80;;
70806;SDS011;58882;52.170;5.386;2023-02-04T16:23:14;13.05;;;2.90;;
70806;SDS011;58882;52.170;5.386;2023-02-04T16:26:01;13.20;;;3.22;;
70806;SDS011;58882;52.170;5.386;2023-02-04T16:28:41;14.30;;;2.83;;
70806;SDS011;58882;52.170;5.386;2023-02-04T16:31:28;13.82;;;3.33;;
70806;SDS011;58882;52.170;5.386;2023-02-04T16:34:08;13.85;;;3.17;;
70806;SDS011;58882;52.170;5.386;2023-02-04T16:37:02;16.85;;;3.45;;
70806;SDS011;58882;52.170;5.386;2023-02-04T16:39:42;17.83;;;3.15;;
70806;SDS011;58882;52.170;5.386;2023-02-04T16:42:30;15.65;;;3.20;;
70806;SDS011;58882;52.170;5.386;2023-02-04T16:45:10;10.77;;;2.97;;
70806;SDS011;58882;52.170;5.386;2023-02-04T16:47:58;12.85;;;3.15;;
70806;SDS011;58882;52.170;5.386;2023-02-04T16:50:38;15.38;;;2.97;;
70806;SDS011;58882;52.170;5.386;2023-02-04T16:53:32;13.40;;;2.78;;
70806;SDS011;58882;52.170;5.386;2023-02-04T16:56:12;14.95;;;3.10;;
70806;SDS011;58882;52.170;5.386;2023-02-04T16:59:06;13.10;;;3.05;;
70806;SDS011;58882;52.170;5.386;2023-02-04T17:01:46;14.30;;;2.97;;
70806;SDS011;58882;52.170;5.386;2023-02-04T17:04:40;13.35;;;3.20;;
70806;SDS011;58882;52.170;5.386;2023-02-04T17:07:20;13.55;;;3.35;;
70806;SDS011;58882;52.170;5.386;2023-02-04T17:10:07;15.60;;;3.17;;
70806;SDS011;58882;52.170;5.386;2023-02-04T17:12:47;13.00;;;3.72;;
70806;SDS011;58882;52.170;5.386;2023-02-04T17:15:34;15.23;;;3.97;;
70806;SDS011;58882;52.170;5.386;2023-02-04T17:18:14;17.13;;;4.10;;
70806;SDS011;58882;52.170;5.386;2023-02-04T17:21:01;15.32;;;4.93;;
70806;SDS011;58882;52.170;5.386;2023-02-04T17:23:41;11.90;;;3.60;;
70806;SDS011;58882;52.170;5.386;2023-02-04T17:26:30;14.02;;;4.18;;
70806;SDS011;58882;52.170;5.386;2023-02-04T17:29:16;14.18;;;3.40;;
70806;SDS011;58882;52.170;5.386;2023-02-04T17:32:03;15.73;;;4.72;;
70806;SDS011;58882;52.170;5.386;2023-02-04T17:34:43;16.20;;;4.35;;
70806;SDS011;58882;52.170;5.386;2023-02-04T17:37:33;14.85;;;4.38;;
70806;SDS011;58882;52.170;5.386;2023-02-04T17:40:13;19.42;;;4.78;;